createdAt,value
2017-08-06T00:00:41.831Z,92.7
2017-08-06T00:01:49.305Z,92.5
2017-08-06T00:02:56.791Z,92.7
2017-08-06T00:04:04.260Z,92.5
2017-08-06T00:05:12.034Z,92.7
2017-08-06T00:06:19.514Z,93.2
2017-08-06T00:07:26.996Z,92.9
2017-08-06T00:08:34.471Z,92.7
2017-08-06T00:09:41.953Z,92.9
2017-08-06T00:10:49.727Z,92.7
2017-08-06T00:11:56.881Z,91.9
2017-08-06T00:13:03.698Z,91.7
2017-08-06T00:14:11.183Z,91.2
2017-08-06T00:16:41.013Z,92.6
2017-08-06T00:17:48.169Z,92.4
2017-08-06T00:18:55.639Z,92.2
2017-08-06T00:20:03.120Z,92.3
2017-08-06T00:21:10.598Z,92.8
2017-08-06T00:22:18.376Z,92.4
2017-08-06T00:23:25.850Z,91.9
2017-08-06T00:24:33.330Z,93
2017-08-06T00:25:40.810Z,92.7
2017-08-06T00:26:47.960Z,92.6
2017-08-06T00:27:55.416Z,92.4
2017-08-06T00:29:02.906Z,92.1
2017-08-06T00:30:10.389Z,92.3
2017-08-06T00:31:17.887Z,92.3
2017-08-06T00:32:25.362Z,92.5
2017-08-06T00:33:33.138Z,92
2017-08-06T00:34:40.623Z,92
2017-08-06T00:35:48.112Z,91.7
2017-08-06T00:36:55.591Z,92
2017-08-06T00:38:02.742Z,92.7
2017-08-06T00:39:10.524Z,92.8
2017-08-06T00:40:18.005Z,92.5
2017-08-06T00:41:25.482Z,92.4
2017-08-06T00:42:32.631Z,92.2
2017-08-06T00:43:40.110Z,92.4
2017-08-06T00:44:47.896Z,92.5
2017-08-06T00:45:55.375Z,92.7
2017-08-06T00:47:02.517Z,92.7
2017-08-06T00:48:09.668Z,93.3
2017-08-06T00:49:17.152Z,93.1
2017-08-06T00:50:24.953Z,92.6
2017-08-06T00:51:32.424Z,92.5
2017-08-06T00:52:39.918Z,92.7
2017-08-06T00:53:46.748Z,92.5
2017-08-06T00:54:54.220Z,93.4
2017-08-06T00:56:02.002Z,93.5
2017-08-06T00:57:09.142Z,92.3
2017-08-06T00:58:16.618Z,93.2
2017-08-06T00:59:24.097Z,92.5
2017-08-06T01:00:31.574Z,93.2
2017-08-06T01:01:39.363Z,93.4
2017-08-06T01:02:46.843Z,93.5
2017-08-06T01:03:54.324Z,94
2017-08-06T01:05:01.806Z,93
2017-08-06T01:06:09.286Z,93.1
2017-08-06T01:07:17.060Z,92.2
2017-08-06T01:08:24.540Z,92.7
2017-08-06T01:09:32.030Z,93.1
2017-08-06T01:10:39.512Z,92.5
2017-08-06T01:11:46.994Z,92.3
2017-08-06T01:12:54.455Z,93.1
2017-08-06T01:14:01.935Z,93.2
2017-08-06T01:15:09.413Z,93.6
2017-08-06T01:16:16.888Z,93.8
2017-08-06T01:17:24.366Z,93.8
2017-08-06T01:18:32.143Z,93.5
2017-08-06T01:19:39.624Z,93.2
2017-08-06T01:20:47.103Z,93.5
2017-08-06T01:21:54.597Z,93.6
2017-08-06T01:23:02.079Z,93.6
2017-08-06T01:24:09.851Z,92.5
2017-08-06T01:25:16.988Z,93.1
2017-08-06T01:26:24.471Z,93.4
2017-08-06T01:27:31.947Z,92.6
2017-08-06T01:28:39.462Z,93.1
2017-08-06T01:29:47.256Z,93.2
2017-08-06T01:30:54.738Z,93.5
2017-08-06T01:32:01.884Z,92.6
2017-08-06T01:33:09.362Z,93.6
2017-08-06T01:34:16.838Z,94.5
2017-08-06T01:35:24.628Z,94.7
2017-08-06T01:36:32.113Z,94.1
2017-08-06T01:37:39.598Z,93.9
2017-08-06T01:38:47.076Z,93.9
2017-08-06T01:39:54.555Z,94.4
2017-08-06T01:41:02.332Z,94.2
2017-08-06T01:42:09.810Z,93
2017-08-06T01:43:17.283Z,92.8
2017-08-06T01:44:24.436Z,93.4
2017-08-06T01:45:31.920Z,93.1
2017-08-06T01:46:39.382Z,94
2017-08-06T01:47:46.906Z,93.4
2017-08-06T01:48:54.382Z,93.2
2017-08-06T01:50:01.855Z,93.8
2017-08-06T01:51:09.333Z,92.5
2017-08-06T01:52:17.107Z,93.2
2017-08-06T01:53:24.261Z,93.7
2017-08-06T01:54:31.742Z,94.1
2017-08-06T01:55:38.889Z,92.9
2017-08-06T01:56:46.362Z,93.8
2017-08-06T01:57:53.818Z,93.8
2017-08-06T01:59:01.296Z,93.2
2017-08-06T02:00:08.779Z,93.6
2017-08-06T02:01:16.272Z,92.3
2017-08-06T02:02:23.749Z,93.2
2017-08-06T02:03:31.194Z,93.8
2017-08-06T02:04:38.673Z,93.4
2017-08-06T02:05:46.153Z,93.3
2017-08-06T02:06:53.643Z,93.2
2017-08-06T02:08:01.120Z,93.2
2017-08-06T02:09:08.896Z,92.4
2017-08-06T02:10:16.373Z,92.3
2017-08-06T02:11:23.846Z,92.9
2017-08-06T02:12:31.326Z,93.3
2017-08-06T02:13:38.802Z,93.2
2017-08-06T02:14:46.252Z,93.4
2017-08-06T02:15:53.737Z,93.4
2017-08-06T02:17:01.227Z,92.7
2017-08-06T02:18:08.389Z,93.1
2017-08-06T02:19:15.868Z,92.7
2017-08-06T02:20:23.648Z,92.3
2017-08-06T02:21:31.128Z,92.5
2017-08-06T02:22:38.277Z,93.3
2017-08-06T02:23:45.784Z,93.1
2017-08-06T02:24:53.259Z,93.6
2017-08-06T02:26:01.049Z,93.7
2017-08-06T02:27:08.525Z,93.7
2017-08-06T02:28:15.684Z,93.4
2017-08-06T02:29:23.153Z,93.6
2017-08-06T02:30:30.631Z,93.7
2017-08-06T02:31:38.418Z,94.1
2017-08-06T02:32:45.565Z,94.1
2017-08-06T02:33:53.063Z,93.7
2017-08-06T02:35:00.541Z,95
2017-08-06T02:36:07.694Z,94.4
2017-08-06T02:37:15.474Z,93.4
2017-08-06T02:38:22.971Z,93.2
2017-08-06T02:39:30.119Z,93.6
2017-08-06T02:40:37.269Z,93.2
2017-08-06T02:41:44.748Z,93.1
2017-08-06T02:42:52.541Z,93.4
2017-08-06T02:43:59.680Z,93.6
2017-08-06T02:45:07.172Z,94
2017-08-06T02:46:14.653Z,94.3
2017-08-06T02:47:22.129Z,93.9
2017-08-06T02:48:29.574Z,93.6
2017-08-06T02:49:37.053Z,93
2017-08-06T02:50:44.530Z,93.9
2017-08-06T02:51:52.005Z,94.7
2017-08-06T02:52:59.476Z,95
2017-08-06T02:54:07.252Z,94.9
2017-08-06T02:55:14.397Z,94.1
2017-08-06T02:56:21.877Z,93.6
2017-08-06T02:57:29.031Z,94.2
2017-08-06T02:58:36.258Z,93.9
2017-08-06T02:59:44.040Z,93.2
2017-08-06T03:00:51.513Z,94
2017-08-06T03:01:58.995Z,94.5
2017-08-06T03:03:06.492Z,94.6
2017-08-06T03:04:13.972Z,94.5
2017-08-06T03:05:21.756Z,93.5
2017-08-06T03:06:28.917Z,93.4
2017-08-06T03:07:36.394Z,93.1
2017-08-06T03:08:43.878Z,93.4
2017-08-06T03:09:51.355Z,93.5
2017-08-06T03:10:59.147Z,93.5
2017-08-06T03:12:06.637Z,93.8
2017-08-06T03:13:13.779Z,94.2
2017-08-06T03:14:20.935Z,93.6
2017-08-06T03:15:28.412Z,93.5
2017-08-06T03:16:35.847Z,93.5
2017-08-06T03:17:43.325Z,92.8
2017-08-06T03:18:50.472Z,93
2017-08-06T03:19:57.615Z,93.5
2017-08-06T03:21:05.111Z,93.2
2017-08-06T03:22:12.558Z,93.6
2017-08-06T03:23:20.086Z,93.6
2017-08-06T03:24:27.561Z,94.3
2017-08-06T03:25:35.035Z,94.4
2017-08-06T03:26:42.511Z,94.1
2017-08-06T03:27:50.292Z,94.2
2017-08-06T03:28:57.772Z,93.1
2017-08-06T03:30:05.251Z,93.7
2017-08-06T03:31:12.729Z,94.4
2017-08-06T03:32:20.211Z,94.2
2017-08-06T03:33:27.984Z,94.7
2017-08-06T03:34:35.462Z,94.1
2017-08-06T03:35:42.939Z,94.5
2017-08-06T03:36:50.412Z,94.6
2017-08-06T03:37:57.890Z,94.4
2017-08-06T03:39:05.349Z,95
2017-08-06T03:40:12.849Z,94.9
2017-08-06T03:41:20.331Z,94.6
2017-08-06T03:42:27.820Z,95.1
2017-08-06T03:43:35.298Z,94.4
2017-08-06T03:44:42.747Z,94.9
2017-08-06T03:45:50.220Z,94.5
2017-08-06T03:46:57.702Z,94.1
2017-08-06T03:48:05.170Z,94.3
2017-08-06T03:49:12.650Z,94.3
2017-08-06T03:50:21.038Z,93.8
2017-08-06T03:51:28.514Z,94.5
2017-08-06T03:52:35.995Z,94.1
2017-08-06T03:53:43.138Z,93.1
2017-08-06T03:54:50.612Z,94.6
2017-08-06T03:55:58.384Z,94.9
2017-08-06T03:57:05.868Z,94.7
2017-08-06T03:58:13.370Z,95.1
2017-08-06T03:59:20.879Z,93.8
2017-08-06T04:00:28.353Z,94.1
2017-08-06T04:01:36.133Z,94.4
2017-08-06T04:02:43.620Z,94
2017-08-06T04:03:51.092Z,94
2017-08-06T04:04:58.570Z,94.2
2017-08-06T04:06:06.047Z,94.8
2017-08-06T04:07:13.828Z,95.3
2017-08-06T04:08:21.321Z,95.4
2017-08-06T04:09:28.476Z,95.3
2017-08-06T04:10:35.952Z,95.3
2017-08-06T04:11:43.425Z,95.3
2017-08-06T04:12:51.203Z,94.6
2017-08-06T04:13:58.685Z,95.5
2017-08-06T04:15:06.172Z,94.7
2017-08-06T04:16:13.650Z,94.4
2017-08-06T04:17:21.126Z,94.9
2017-08-06T04:18:28.575Z,95
2017-08-06T04:19:36.059Z,94.7
2017-08-06T04:20:43.199Z,94.4
2017-08-06T04:21:50.680Z,94.8
2017-08-06T04:22:57.833Z,95.6
2017-08-06T04:24:05.608Z,95.6
2017-08-06T04:25:13.081Z,95.6
2017-08-06T04:26:20.563Z,95.8
2017-08-06T04:27:28.045Z,94.8
2017-08-06T04:28:35.521Z,94.7
2017-08-06T04:29:43.309Z,94.5
2017-08-06T04:30:50.459Z,95.1
2017-08-06T04:31:57.608Z,95.4
2017-08-06T04:33:05.084Z,96.1
2017-08-06T04:34:12.229Z,95.9
2017-08-06T04:35:19.999Z,95.4
2017-08-06T04:36:27.482Z,94.7
2017-08-06T04:37:34.975Z,94.1
2017-08-06T04:38:42.121Z,94.6
2017-08-06T04:39:49.608Z,96
2017-08-06T04:40:57.392Z,95.9
2017-08-06T04:42:04.867Z,94.5
2017-08-06T04:43:12.340Z,94.3
2017-08-06T04:44:19.817Z,95.1
2017-08-06T04:45:27.293Z,95.5
2017-08-06T04:46:35.074Z,94
2017-08-06T04:47:42.551Z,93.3
2017-08-06T04:48:50.027Z,94.6
2017-08-06T04:49:57.500Z,95.8
2017-08-06T04:51:04.976Z,95.7
2017-08-06T04:52:12.767Z,95
2017-08-06T04:53:20.259Z,95.2
2017-08-06T04:54:27.732Z,95.7
2017-08-06T04:55:34.880Z,96
2017-08-06T04:56:42.617Z,95.8
2017-08-06T04:57:50.845Z,96.2
2017-08-06T04:58:58.321Z,96.4
2017-08-06T05:00:05.796Z,96.6
2017-08-06T05:01:13.360Z,96.5
2017-08-06T05:02:20.840Z,95.4
2017-08-06T05:03:28.636Z,94.9
2017-08-06T05:04:36.112Z,95.6
2017-08-06T05:05:43.590Z,96.2
2017-08-06T05:06:51.066Z,96.1
2017-08-06T05:07:58.540Z,95.4
2017-08-06T05:09:06.330Z,95.8
2017-08-06T05:10:13.801Z,96
2017-08-06T05:11:21.278Z,95.3
2017-08-06T05:12:28.752Z,94.6
2017-08-06T05:13:36.225Z,95
2017-08-06T05:14:44.002Z,94.8
2017-08-06T05:15:51.477Z,96.2
2017-08-06T05:16:58.618Z,96
2017-08-06T05:18:06.092Z,96.7
2017-08-06T05:19:13.571Z,96.5
2017-08-06T05:20:21.350Z,96.5
2017-08-06T05:21:28.855Z,96.6
2017-08-06T05:22:36.334Z,96.3
2017-08-06T05:23:43.822Z,96.6
2017-08-06T05:24:51.312Z,96.4
2017-08-06T05:25:59.084Z,96.1
2017-08-06T05:27:06.553Z,96.9
2017-08-06T05:28:14.040Z,96.8
2017-08-06T05:29:21.516Z,96.7
2017-08-06T05:30:28.991Z,96.8
2017-08-06T05:31:36.765Z,98.1
2017-08-06T05:32:44.246Z,98.2
2017-08-06T05:33:51.725Z,98.5
2017-08-06T05:34:59.227Z,98.5
2017-08-06T05:36:06.700Z,97.9
2017-08-06T05:37:14.480Z,97.8
2017-08-06T05:38:21.958Z,97.5
2017-08-06T05:39:29.445Z,97.5
2017-08-06T05:40:36.922Z,98.2
2017-08-06T05:41:44.404Z,98.3
2017-08-06T05:42:52.175Z,98.2
2017-08-06T05:43:59.657Z,98.6
2017-08-06T05:45:07.138Z,98.4
2017-08-06T05:46:14.620Z,98.7
2017-08-06T05:47:22.097Z,98
2017-08-06T05:48:29.874Z,97.9
2017-08-06T05:49:37.351Z,98.1
2017-08-06T05:50:44.497Z,98.7
2017-08-06T05:51:51.324Z,98.3
2017-08-06T05:52:58.798Z,98.4
2017-08-06T05:54:06.263Z,98.3
2017-08-06T05:55:13.739Z,98.4
2017-08-06T05:56:21.216Z,98.4
2017-08-06T05:57:28.686Z,98.4
2017-08-06T05:58:36.158Z,97.9
2017-08-06T05:59:43.939Z,97.8
2017-08-06T06:00:51.417Z,97.7
2017-08-06T06:01:58.891Z,97.4
2017-08-06T06:03:06.385Z,97.3
2017-08-06T06:04:13.866Z,96.8
2017-08-06T06:05:21.643Z,96.5
2017-08-06T06:06:29.123Z,96.5
2017-08-06T06:07:36.603Z,96.2
2017-08-06T06:08:44.084Z,96
2017-08-06T06:09:51.567Z,95.6
2017-08-06T06:11:01.237Z,95.6
2017-08-06T06:12:08.713Z,94.6
2017-08-06T06:13:16.188Z,94.6
2017-08-06T06:14:23.671Z,94.7
2017-08-06T06:15:31.145Z,94.1
2017-08-06T06:16:38.933Z,94
2017-08-06T06:17:46.438Z,93.2
2017-08-06T06:18:53.905Z,93.4
2017-08-06T06:20:01.064Z,94.1
2017-08-06T06:21:08.541Z,93.8
2017-08-06T06:22:16.314Z,93.6
2017-08-06T06:23:23.795Z,93.3
2017-08-06T06:24:31.279Z,93.2
2017-08-06T06:25:38.757Z,92.8
2017-08-06T06:26:45.910Z,92.3
2017-08-06T06:27:53.694Z,91.8
2017-08-06T06:29:01.163Z,92.1
2017-08-06T06:30:08.641Z,91.8
2017-08-06T06:31:16.131Z,90.5
2017-08-06T06:32:23.611Z,90.2
2017-08-06T06:33:31.392Z,90.7
2017-08-06T06:34:38.544Z,90.2
2017-08-06T06:35:46.022Z,91
2017-08-06T06:36:53.177Z,90.6
2017-08-06T06:38:00.334Z,91.2
2017-08-06T06:39:08.112Z,90.6
2017-08-06T06:40:15.600Z,90.2
2017-08-06T06:41:23.081Z,88.7
2017-08-06T06:42:30.568Z,88
2017-08-06T06:43:38.061Z,90
2017-08-06T06:44:45.846Z,86.7
2017-08-06T06:45:53.336Z,89
2017-08-06T06:47:00.497Z,88.4
2017-08-06T06:48:07.648Z,87.5
2017-08-06T06:49:15.140Z,86.8
2017-08-06T06:50:22.912Z,87.9
2017-08-06T06:51:30.409Z,90.4
2017-08-06T06:52:37.231Z,89.2
2017-08-06T06:53:44.731Z,88.9
2017-08-06T06:54:52.445Z,86
2017-08-06T06:56:00.220Z,86.2
2017-08-06T06:57:07.376Z,90.2
2017-08-06T06:58:14.862Z,87.1
2017-08-06T06:59:22.341Z,85.5
2017-08-06T07:00:29.817Z,85.4
2017-08-06T07:01:37.606Z,87.7
2017-08-06T07:02:45.090Z,85.1
2017-08-06T07:03:52.570Z,86.7
2017-08-06T07:05:00.057Z,85.6
2017-08-06T07:06:07.536Z,83.6
2017-08-06T07:07:15.321Z,85.7
2017-08-06T07:08:22.799Z,83.8
2017-08-06T07:09:30.281Z,86.1
2017-08-06T07:10:37.762Z,83.6
2017-08-06T07:11:46.827Z,81.3
2017-08-06T07:12:54.627Z,79.2
2017-08-06T07:14:02.106Z,79.5
2017-08-06T07:15:09.589Z,81.8
2017-08-06T07:16:17.071Z,79.3
2017-08-06T07:17:24.555Z,82.6
2017-08-06T07:18:32.330Z,82.8
2017-08-06T07:19:39.808Z,80.7
2017-08-06T07:20:46.954Z,80
2017-08-06T07:21:54.437Z,82.4
2017-08-06T07:23:01.926Z,81.3
2017-08-06T07:24:09.704Z,82.2
2017-08-06T07:25:17.182Z,78.1
2017-08-06T07:26:24.664Z,79.9
2017-08-06T07:27:32.146Z,78.1
2017-08-06T07:28:39.633Z,78.3
2017-08-06T07:29:47.080Z,76.7
2017-08-06T07:30:54.260Z,81
2017-08-06T07:32:01.735Z,78.5
2017-08-06T07:33:09.380Z,76.7
2017-08-06T07:34:16.881Z,76.7
2017-08-06T07:35:24.664Z,78.1
2017-08-06T07:36:32.146Z,79.2
2017-08-06T07:37:39.631Z,77.8
2017-08-06T07:38:47.118Z,76.9
2017-08-06T07:39:54.598Z,76
2017-08-06T07:41:02.054Z,76
2017-08-06T07:42:09.532Z,72.3
2017-08-06T07:43:17.012Z,75.8
2017-08-06T07:44:24.511Z,73.6
2017-08-06T07:45:31.991Z,73.3
2017-08-06T07:46:39.768Z,72.7
2017-08-06T07:47:47.248Z,73
2017-08-06T07:48:54.738Z,76
2017-08-06T07:50:02.227Z,72.6
2017-08-06T07:51:09.728Z,71.8
2017-08-06T07:52:17.514Z,73
2017-08-06T07:53:25.007Z,72.8
2017-08-06T07:54:32.495Z,67.9
2017-08-06T07:55:39.979Z,69.1
2017-08-06T07:56:47.465Z,68.7
2017-08-06T07:57:54.910Z,68.3
2017-08-06T07:59:02.389Z,66.8
2017-08-06T08:00:09.874Z,70.7
2017-08-06T08:01:17.375Z,67.6
2017-08-06T08:02:24.537Z,73.4
2017-08-06T08:03:32.328Z,68.3
2017-08-06T08:04:39.805Z,70
2017-08-06T08:05:46.953Z,70
2017-08-06T08:06:54.436Z,69.5
2017-08-06T08:08:01.919Z,66.6
2017-08-06T08:09:09.708Z,66
2017-08-06T08:10:17.203Z,67.4
2017-08-06T08:11:24.687Z,64.6
2017-08-06T08:12:31.852Z,69.7
2017-08-06T08:13:39.337Z,65.8
2017-08-06T08:14:46.794Z,65.6
2017-08-06T08:15:53.963Z,63.6
2017-08-06T08:17:01.450Z,65.7
2017-08-06T08:18:08.938Z,66.3
2017-08-06T08:19:16.417Z,68.1
2017-08-06T08:20:24.207Z,67.2
2017-08-06T08:21:31.041Z,64.2
2017-08-06T08:22:38.528Z,64
2017-08-06T08:23:46.018Z,63.7
2017-08-06T08:24:53.509Z,64.4
2017-08-06T08:26:01.303Z,64.5
2017-08-06T08:27:08.783Z,62.3
2017-08-06T08:28:16.272Z,60.9
2017-08-06T08:29:23.414Z,59.9
2017-08-06T08:30:30.255Z,63.7
2017-08-06T08:31:38.058Z,66.1
2017-08-06T08:32:45.545Z,62.2
2017-08-06T08:33:53.044Z,62.3
2017-08-06T08:35:00.526Z,61.9
2017-08-06T08:36:08.007Z,59.7
2017-08-06T08:37:15.814Z,60.9
2017-08-06T08:38:23.302Z,60.1
2017-08-06T08:39:30.798Z,62.7
2017-08-06T08:40:37.951Z,57.9
2017-08-06T08:41:45.438Z,59.9
2017-08-06T08:42:53.224Z,60.4
2017-08-06T08:44:00.378Z,62.6
2017-08-06T08:45:07.861Z,60.1
2017-08-06T08:46:15.347Z,61.9
2017-08-06T08:47:22.840Z,60.4
2017-08-06T08:48:30.004Z,63.3
2017-08-06T08:49:37.160Z,62.3
2017-08-06T08:50:44.991Z,61.2
2017-08-06T08:51:52.660Z,59
2017-08-06T08:53:00.166Z,58.8
2017-08-06T08:54:07.654Z,56.9
2017-08-06T08:55:15.138Z,63.6
2017-08-06T08:56:22.926Z,59.6
2017-08-06T08:57:30.089Z,60.7
2017-08-06T08:58:37.574Z,53.5
2017-08-06T08:59:45.060Z,54.4
2017-08-06T09:00:52.551Z,54.7
2017-08-06T09:02:00.036Z,56
2017-08-06T09:03:07.545Z,56.9
2017-08-06T09:04:15.044Z,58.1
2017-08-06T09:05:22.211Z,59.1
2017-08-06T09:06:29.389Z,54
2017-08-06T09:07:37.186Z,57.2
2017-08-06T09:08:44.685Z,59
2017-08-06T09:09:52.217Z,59.7
2017-08-06T09:10:59.718Z,58.2
2017-08-06T09:12:07.216Z,54
2017-08-06T09:13:15.010Z,56.7
2017-08-06T09:14:22.503Z,54.8
2017-08-06T09:15:29.999Z,52.3
2017-08-06T09:16:37.488Z,52.3
2017-08-06T09:17:44.648Z,52.4
2017-08-06T09:18:52.449Z,53.1
2017-08-06T09:19:59.616Z,57.7
2017-08-06T09:21:07.103Z,57.2
2017-08-06T09:22:14.587Z,56.7
2017-08-06T09:23:22.069Z,55.2
2017-08-06T09:24:29.858Z,54.9
2017-08-06T09:25:37.342Z,57.1
2017-08-06T09:26:44.849Z,57.4
2017-08-06T09:27:52.336Z,58.2
2017-08-06T09:28:59.833Z,56.8
2017-08-06T09:30:07.289Z,53.4
2017-08-06T09:31:14.447Z,54.3
2017-08-06T09:32:21.935Z,55.3
2017-08-06T09:33:29.354Z,58.2
2017-08-06T09:34:36.847Z,57.5
2017-08-06T09:35:44.649Z,54.3
2017-08-06T09:36:51.802Z,52
2017-08-06T09:37:59.293Z,52.6
2017-08-06T09:39:06.781Z,52
2017-08-06T09:40:14.268Z,53.7
2017-08-06T09:41:21.723Z,53.9
2017-08-06T09:42:29.207Z,55.6
2017-08-06T09:43:36.697Z,58.9
2017-08-06T09:44:43.857Z,57
2017-08-06T09:45:51.380Z,57.6
2017-08-06T09:46:58.869Z,56.7
2017-08-06T09:48:06.041Z,57.6
2017-08-06T09:49:13.539Z,58
2017-08-06T09:50:20.713Z,57.3
2017-08-06T09:51:28.195Z,55.6
2017-08-06T09:52:36.037Z,55.2
2017-08-06T09:53:43.519Z,55.1
2017-08-06T09:54:50.690Z,53.4
2017-08-06T09:55:58.177Z,54.8
2017-08-06T09:57:05.669Z,54
2017-08-06T09:58:13.502Z,53
2017-08-06T09:59:20.985Z,50.5
2017-08-06T10:00:28.143Z,50.2
2017-08-06T10:01:35.642Z,54.7
2017-08-06T10:02:42.802Z,52.4
2017-08-06T10:03:50.640Z,50
2017-08-06T10:04:58.122Z,49.6
2017-08-06T10:06:05.283Z,50.6
2017-08-06T10:07:12.788Z,49
2017-08-06T10:08:20.279Z,51.1
2017-08-06T10:09:27.808Z,51.3
2017-08-06T10:10:35.295Z,52.6
2017-08-06T10:11:42.786Z,53.7
2017-08-06T10:12:50.269Z,54
2017-08-06T10:13:57.760Z,53.7
2017-08-06T10:15:05.599Z,55
2017-08-06T10:16:13.083Z,55.6
2017-08-06T10:17:20.569Z,59.1
2017-08-06T10:18:28.061Z,55
2017-08-06T10:19:35.550Z,51.7
2017-08-06T10:20:43.340Z,54.3
2017-08-06T10:21:50.828Z,54.6
2017-08-06T10:22:57.982Z,49.6
2017-08-06T10:24:05.485Z,49.4
2017-08-06T10:25:12.972Z,51.6
2017-08-06T10:26:20.784Z,48.7
2017-08-06T10:27:28.262Z,51.1
2017-08-06T10:28:35.749Z,49.4
2017-08-06T10:29:43.235Z,51.7
2017-08-06T10:30:50.731Z,47.8
2017-08-06T10:31:58.520Z,49.7
2017-08-06T10:33:06.035Z,50.7
2017-08-06T10:34:13.521Z,52.5
2017-08-06T10:35:21.005Z,53
2017-08-06T10:36:28.153Z,48.3
2017-08-06T10:37:35.960Z,49.1
2017-08-06T10:38:43.466Z,46.7
2017-08-06T10:39:50.958Z,47.1
2017-08-06T10:40:58.460Z,51.7
2017-08-06T10:42:05.955Z,48
2017-08-06T10:43:13.739Z,46.1
2017-08-06T10:44:21.232Z,47.7
2017-08-06T10:45:28.712Z,45.4
2017-08-06T10:46:36.222Z,46.5
2017-08-06T10:47:43.706Z,46.3
2017-08-06T10:48:51.492Z,47
2017-08-06T10:49:58.976Z,47.8
2017-08-06T10:51:06.469Z,49.1
2017-08-06T10:52:13.633Z,46
2017-08-06T10:53:21.120Z,46.3
2017-08-06T10:54:28.581Z,48.7
2017-08-06T10:55:36.070Z,47.1
2017-08-06T10:56:43.560Z,47.4
2017-08-06T10:57:50.748Z,47.1
2017-08-06T10:58:57.582Z,48.4
2017-08-06T11:00:05.370Z,46.4
2017-08-06T11:01:12.862Z,49.2
2017-08-06T11:02:20.750Z,51.2
2017-08-06T11:03:28.252Z,50.4
2017-08-06T11:04:35.731Z,52.2
2017-08-06T11:05:43.523Z,50.7
2017-08-06T11:06:51.251Z,44.4
2017-08-06T11:07:58.727Z,45.4
2017-08-06T11:09:06.218Z,44.1
2017-08-06T11:10:13.706Z,46
2017-08-06T11:11:21.502Z,49.1
2017-08-06T11:12:28.987Z,47.8
2017-08-06T11:13:36.476Z,44.3
2017-08-06T11:16:06.059Z,46.5
2017-08-06T11:17:13.844Z,47.4
2017-08-06T11:18:21.338Z,46.1
2017-08-06T11:19:28.838Z,47.8
2017-08-06T11:20:36.316Z,47.1
2017-08-06T11:21:43.798Z,43.2
2017-08-06T11:22:51.586Z,46.8
2017-08-06T11:23:59.085Z,42.1
2017-08-06T11:25:06.835Z,42.8
2017-08-06T11:26:15.291Z,47.1
2017-08-06T11:27:22.775Z,44.7
2017-08-06T11:28:30.563Z,45.6
2017-08-06T11:29:38.058Z,46.5
2017-08-06T11:30:45.544Z,46
2017-08-06T11:31:53.028Z,41.6
2017-08-06T11:33:00.529Z,43.6
2017-08-06T11:34:08.326Z,39.3
2017-08-06T11:35:15.812Z,43.8
2017-08-06T11:36:23.306Z,44
2017-08-06T11:37:30.799Z,43.3
2017-08-06T11:38:37.956Z,44.7
2017-08-06T11:39:45.744Z,42.9
2017-08-06T11:40:53.228Z,44.9
2017-08-06T11:42:00.717Z,42.8
2017-08-06T11:43:08.214Z,42
2017-08-06T11:44:15.700Z,41.7
2017-08-06T11:45:23.492Z,43
2017-08-06T11:46:30.979Z,43.6
2017-08-06T11:47:38.496Z,44.7
2017-08-06T11:48:45.976Z,44.4
2017-08-06T11:49:53.477Z,44.9
2017-08-06T11:51:00.935Z,44.6
2017-08-06T11:52:08.099Z,44.5
2017-08-06T11:53:15.589Z,44.3
2017-08-06T11:54:23.079Z,44.2
2017-08-06T11:55:30.572Z,43.6
2017-08-06T11:56:38.362Z,44.6
2017-08-06T11:57:45.853Z,42.3
2017-08-06T11:58:53.348Z,43.2
2017-08-06T12:00:00.836Z,40.3
2017-08-06T12:01:08.331Z,39.5
2017-08-06T12:02:16.119Z,40.9
2017-08-06T12:03:23.618Z,39.4
2017-08-06T12:04:31.106Z,43.7
2017-08-06T12:05:38.626Z,39.8
2017-08-06T12:06:46.118Z,39
2017-08-06T12:07:53.586Z,35.5
2017-08-06T12:09:00.745Z,38.5
2017-08-06T12:10:08.229Z,40.3
2017-08-06T12:11:15.711Z,38.5
2017-08-06T12:12:23.211Z,41.5
2017-08-06T12:14:53.067Z,41
2017-08-06T12:16:00.553Z,42.2
2017-08-06T12:17:07.709Z,39.8
2017-08-06T12:18:15.197Z,42.7
2017-08-06T12:19:22.990Z,42.7
2017-08-06T12:20:30.481Z,43.7
2017-08-06T12:21:37.639Z,42.6
2017-08-06T12:22:44.795Z,40.4
2017-08-06T12:23:51.949Z,40.3
2017-08-06T12:24:59.738Z,37.7
2017-08-06T12:26:06.902Z,41.6
2017-08-06T12:27:14.073Z,40.1
2017-08-06T12:28:21.230Z,39.6
2017-08-06T12:29:28.396Z,40.4
2017-08-06T12:30:36.201Z,39.8
2017-08-06T12:31:43.694Z,39.6
2017-08-06T12:32:51.184Z,37.5
2017-08-06T12:33:58.677Z,41.2
2017-08-06T12:35:06.174Z,40.9
2017-08-06T12:36:13.970Z,37.1
2017-08-06T12:37:21.455Z,40.2
2017-08-06T12:38:28.612Z,36.5
2017-08-06T12:39:35.775Z,37.4
2017-08-06T12:40:43.270Z,34.1
2017-08-06T12:41:51.069Z,34.9
2017-08-06T12:42:58.561Z,37.8
2017-08-06T12:44:06.050Z,41.4
2017-08-06T12:45:13.207Z,38.8
2017-08-06T12:46:20.369Z,38.7
2017-08-06T12:47:28.157Z,40.7
2017-08-06T12:48:35.646Z,41
2017-08-06T12:49:43.135Z,42
2017-08-06T12:50:50.626Z,44.7
2017-08-06T12:51:58.112Z,46.8
2017-08-06T12:53:07.353Z,44.1
2017-08-06T12:54:14.842Z,43.3
2017-08-06T12:55:22.335Z,43
2017-08-06T12:56:29.834Z,42.4
2017-08-06T12:57:37.316Z,42.1
2017-08-06T12:58:45.106Z,42.5
2017-08-06T12:59:52.591Z,41.7
2017-08-06T13:01:00.079Z,38.1
2017-08-06T13:02:07.243Z,40.1
2017-08-06T13:03:14.413Z,39.7
2017-08-06T13:04:22.195Z,40.5
2017-08-06T13:05:29.685Z,37.8
2017-08-06T13:06:37.184Z,37.6
2017-08-06T13:07:44.668Z,41.1
2017-08-06T13:08:52.157Z,36.7
2017-08-06T13:09:59.615Z,39.9
2017-08-06T13:11:07.097Z,40.1
2017-08-06T13:12:13.933Z,37.9
2017-08-06T13:13:21.419Z,35.8
2017-08-06T13:14:28.957Z,37.5
2017-08-06T13:15:38.209Z,37.2
2017-08-06T13:16:45.372Z,36.3
2017-08-06T13:17:52.855Z,35.9
2017-08-06T13:19:00.343Z,33.2
2017-08-06T13:20:07.837Z,36.3
2017-08-06T13:21:15.620Z,36.3
2017-08-06T13:22:23.152Z,40.4
2017-08-06T13:23:30.321Z,41.1
2017-08-06T13:25:44.926Z,35.5
2017-08-06T13:26:52.713Z,37.2
2017-08-06T13:28:00.210Z,38.2
2017-08-06T13:29:07.698Z,37.5
2017-08-06T13:30:15.185Z,35.9
2017-08-06T13:31:22.674Z,33.9
2017-08-06T13:32:30.465Z,34.8
2017-08-06T13:33:38.011Z,35.4
2017-08-06T13:34:45.484Z,34.3
2017-08-06T13:35:52.985Z,37.9
2017-08-06T13:37:00.493Z,36.9
2017-08-06T13:38:08.332Z,35.7
2017-08-06T13:39:15.848Z,39
2017-08-06T13:40:23.338Z,39.1
2017-08-06T13:41:30.840Z,38.5
2017-08-06T13:42:38.337Z,37.4
2017-08-06T13:43:46.170Z,37.6
2017-08-06T13:44:53.663Z,34.3
2017-08-06T13:46:01.153Z,36.6
2017-08-06T13:47:08.648Z,36.5
2017-08-06T13:48:16.133Z,36.3
2017-08-06T13:49:23.977Z,35.6
2017-08-06T13:50:31.484Z,37.1
2017-08-06T13:51:38.975Z,37.2
2017-08-06T13:52:46.469Z,36.4
2017-08-06T13:53:53.957Z,35.4
2017-08-06T13:55:01.750Z,35.2
2017-08-06T13:56:09.235Z,37.5
2017-08-06T13:57:16.395Z,37.4
2017-08-06T13:58:23.889Z,36.2
2017-08-06T13:59:31.398Z,36.1
2017-08-06T14:00:39.187Z,36.4
2017-08-06T14:01:46.692Z,35
2017-08-06T14:02:54.182Z,36.5
2017-08-06T14:04:01.670Z,33.3
2017-08-06T14:05:08.855Z,31.6
2017-08-06T14:06:16.650Z,32.9
2017-08-06T14:07:24.142Z,34.1
2017-08-06T14:08:31.626Z,33.5
2017-08-06T14:09:38.786Z,31.7
2017-08-06T14:10:46.270Z,34.5
2017-08-06T14:11:54.057Z,35.4
2017-08-06T14:13:01.547Z,34.2
2017-08-06T14:14:09.037Z,31.7
2017-08-06T14:15:16.525Z,32.5
2017-08-06T14:16:24.019Z,35.8
2017-08-06T14:17:31.874Z,33.6
2017-08-06T14:18:39.378Z,32.2
2017-08-06T14:19:46.868Z,32.7
2017-08-06T14:20:54.352Z,34.9
2017-08-06T14:22:01.844Z,34.5
2017-08-06T14:23:09.635Z,34.7
2017-08-06T14:24:17.123Z,35.4
2017-08-06T14:25:24.612Z,34.2
2017-08-06T14:26:32.115Z,35.1
2017-08-06T14:27:39.615Z,35.6
2017-08-06T14:28:47.397Z,33.5
2017-08-06T14:29:54.223Z,34
2017-08-06T14:31:01.569Z,36.9
2017-08-06T14:32:08.724Z,34.4
2017-08-06T14:33:15.889Z,31.9
2017-08-06T14:34:23.688Z,35.6
2017-08-06T14:35:31.171Z,36.9
2017-08-06T14:36:38.678Z,36.7
2017-08-06T14:37:46.156Z,35.7
2017-08-06T14:38:53.647Z,35.7
2017-08-06T14:40:01.109Z,36.3
2017-08-06T14:41:08.604Z,33.8
2017-08-06T14:42:16.097Z,36.4
2017-08-06T14:43:23.590Z,34.1
2017-08-06T14:44:31.135Z,34.3
2017-08-06T14:45:38.299Z,37
2017-08-06T14:46:45.455Z,33.7
2017-08-06T14:47:52.965Z,32.1
2017-08-06T14:49:00.753Z,34.9
2017-08-06T14:50:08.252Z,33.8
2017-08-06T14:51:15.743Z,32.5
2017-08-06T14:52:23.231Z,33.4
2017-08-06T14:53:30.741Z,34.6
2017-08-06T14:54:38.531Z,32.1
2017-08-06T14:55:45.698Z,33.3
2017-08-06T14:56:53.198Z,31.4
2017-08-06T14:58:00.685Z,33.5
2017-08-06T14:59:08.221Z,31.6
2017-08-06T15:00:16.069Z,32.9
2017-08-06T15:01:23.564Z,30.3
2017-08-06T15:02:31.059Z,34.7
2017-08-06T15:03:38.583Z,33.7
2017-08-06T15:04:46.073Z,32.3
2017-08-06T15:05:53.587Z,33.4
2017-08-06T15:07:01.079Z,31.5
2017-08-06T15:08:08.567Z,33.4
2017-08-06T15:09:16.060Z,33.9